Time;durP1;ratioP1;P1;durP2;ratioP2;P2;SDS_P1;SDS_P2;PMS_P1;PMS_P2;Temp;Humidity;BMP_temperature;BMP_pressure;BME280_temperature;BME280_humidity;BME280_pressure;Samples;Min_cycle;Max_cycle;Signal;HPM_P1;HPM_P2
2023/12/21 00:16:12;;;;;;;;;;;;;;;11.21;100.00;100506.84;5308491;23;19952;-96
2023/12/21 00:34:02;;;;;;;;;;;;;;;11.22;100.00;100493.47;5954114;23;20016;-96
2023/12/21 00:36:28;;;;;;;;;;;;;;;11.22;100.00;100458.22;4874296;29;19934;-95
2023/12/21 00:39:00;;;;;;;;;;;;;;;11.21;100.00;100456.56;4890002;29;19927;-95
2023/12/21 00:41:39;;;;;;;;;;;;;;;;;;;;;
2023/12/21 00:44:06;;;;;;;;;;;;;;;11.23;100.00;100436.91;4889369;29;19947;-96
2023/12/21 00:46:55;;;;;;;;;;;;;;;11.25;100.00;100448.19;4869575;29;19926;-96
2023/12/21 00:49:24;;;;;;;;;;;;;;;11.25;100.00;100458.78;4897521;29;19924;-96
2023/12/21 00:52:16;;;;;;;;;;;;;;;11.28;100.00;100453.19;4866768;29;19951;-96
2023/12/21 00:54:58;;;;;;;;;;;;;;;11.28;100.00;100453.19;4893984;29;19924;-96
2023/12/21 00:57:30;;;;;;;;;;;;;;;11.29;100.00;100446.91;4893619;29;19927;-95
2023/12/21 01:00:04;;;;;;;;;;;;;;;11.31;100.00;100451.22;4878625;29;20455;-96
2023/12/21 01:02:38;;;;;;;;;;;;;;;11.31;100.00;100443.28;4905708;29;19928;-96
2023/12/21 01:05:09;;;;;;;;;;;;;;;11.32;100.00;100434.34;4877013;29;20452;-95
2023/12/21 01:07:47;;;;;;;;;;;;;;;11.31;100.00;100433.50;4899839;29;19930;-96
2023/12/21 01:10:26;;;;;;;;;;;;;;;11.29;100.00;100415.16;4881234;29;19959;-95
2023/12/21 01:13:05;;;;;;;;;;;;;;;11.29;100.00;100399.28;4881884;29;20358;-96
2023/12/21 01:15:47;;;;;;;;;;;;;;;;;;;;;
2023/12/21 01:18:33;;;;;;;;;;;;;;;11.33;100.00;100413.03;4915335;29;19920;-95
2023/12/21 01:21:20;;;;;;;;;;;;;;;11.35;100.00;100407.59;4881788;29;19920;-96
2023/12/21 01:23:54;;;;;;;;;;;;;;;11.33;100.00;100402.47;4874041;29;20369;-96
2023/12/21 01:26:43;;;;;;;;;;;;;;;11.34;100.00;100403.28;4870671;29;19920;-95
2023/12/21 01:29:10;;;;;;;;;;;;;;;11.38;100.00;100418.72;4898565;29;19924;-96
2023/12/21 01:31:49;;;;;;;;;;;;;;;11.43;100.00;100422.72;4855918;29;19930;-95
2023/12/21 01:34:47;;;;;;;;;;;;;;;11.39;100.00;100409.78;4896399;29;19955;-96
2023/12/21 01:37:23;;;;;;;;;;;;;;;11.42;100.00;100408.66;4887746;29;19975;-96
2023/12/21 01:40:18;;;;;;;;;;;;;;;11.38;100.00;100371.09;4874333;29;19984;-96
2023/12/21 01:43:03;;;;;;;;;;;;;;;11.35;100.00;100376.69;4881481;29;19920;-95
2023/12/21 01:45:32;;;;;;;;;;;;;;;11.36;100.00;100375.69;4867147;29;19920;-96
2023/12/21 01:48:27;;;;;;;;;;;;;;;11.34;100.00;100368.91;4872218;29;19923;-96
2023/12/21 01:51:09;;;;;;;;;;;;;;;;;;;;;
2023/12/21 01:53:45;;;;;;;;;;;;;;;11.28;100.00;100357.09;4911317;29;19924;-95
2023/12/21 01:56:23;;;;;;;;;;;;;;;11.25;100.00;100374.09;4915330;29;20010;-96
2023/12/21 01:58:56;;;;;;;;;;;;;;;11.27;100.00;100364.22;4876748;29;19924;-96
2023/12/21 02:04:39;;;;;;;;;;;;;;;11.21;100.00;100345.44;4877359;29;19936;-96
2023/12/21 02:07:09;;;;;;;;;;;;;;;11.24;100.00;100348.63;4901835;29;19976;-96
2023/12/21 02:09:47;;;;;;;;;;;;;;;11.20;100.00;100349.91;4903866;29;19974;-96
2023/12/21 02:12:24;;;;;;;;;;;;;;;11.18;100.00;100322.75;4891725;29;19939;-96
2023/12/21 02:14:56;;;;;;;;;;;;;;;11.16;100.00;100319.47;4885586;29;19920;-96
2023/12/21 02:18:04;;;;;;;;;;;;;;;11.16;100.00;100320.25;4864735;29;19923;-96
2023/12/21 02:20:41;;;;;;;;;;;;;;;11.16;100.00;100320.25;4859868;29;20255;-96
2023/12/21 02:23:11;;;;;;;;;;;;;;;11.14;100.00;100319.59;4876380;29;19920;-96
2023/12/21 02:25:40;;;;;;;;;;;;;;;11.08;100.00;100311.44;4891922;29;19931;-94
2023/12/21 02:28:14;;;;;;;;;;;;;;;11.10;100.00;100325.34;4914669;29;19924;-93
2023/12/21 02:31:01;;;;;;;;;;;;;;;11.12;100.00;100312.78;4855013;29;19946;-96
2023/12/21 02:33:42;;;;;;;;;;;;;;;11.13;100.00;100303.88;4888787;29;20290;-96
2023/12/21 02:36:17;;;;;;;;;;;;;;;11.16;100.00;100306.22;4882718;29;19920;-96
2023/12/21 02:38:44;;;;;;;;;;;;;;;11.18;100.00;100300.78;4902122;29;19959;-95
2023/12/21 02:41:19;;;;;;;;;;;;;;;11.22;100.00;100286.25;4883108;29;19976;-96
2023/12/21 02:43:46;;;;;;;;;;;;;;;11.20;100.00;100289.06;4879484;29;19920;-95
2023/12/21 02:46:14;;;;;;;;;;;;;;;11.19;100.00;100276.81;4883281;29;19919;-96
2023/12/21 02:48:46;;;;;;;;;;;;;;;11.22;100.00;100302.13;4884604;29;19947;-95
2023/12/21 02:51:27;;;;;;;;;;;;;;;11.19;100.00;100292.69;4884944;29;19920;-96
2023/12/21 02:53:56;;;;;;;;;;;;;;;11.18;100.00;100298.94;4888960;29;19919;-96
2023/12/21 02:56:34;;;;;;;;;;;;;;;11.18;100.00;100263.75;4888394;29;19920;-96
2023/12/21 02:59:08;;;;;;;;;;;;;;;11.18;100.00;100290.19;4884211;29;19926;-96
2023/12/21 03:01:43;;;;;;;;;;;;;;;11.18;100.00;100288.38;4866245;29;19923;-96
2023/12/21 03:04:19;;;;;;;;;;;;;;;11.14;100.00;100277.28;4882657;29;19928;-95
2023/12/21 03:10:05;;;;;;;;;;;;;;;11.13;100.00;100272.97;4865360;29;19946;-96
2023/12/21 03:12:36;;;;;;;;;;;;;;;11.13;100.00;100243.03;4873378;29;19930;-96
2023/12/21 03:15:03;;;;;;;;;;;;;;;11.13;100.00;100232.47;4900919;29;19935;-96
2023/12/21 03:17:40;;;;;;;;;;;;;;;11.12;100.00;100250.13;4867418;29;19963;-96
2023/12/21 03:20:17;;;;;;;;;;;;;;;11.06;100.00;100234.03;4893162;29;19999;-94
2023/12/21 03:22:51;;;;;;;;;;;;;;;11.10;100.00;100244.16;4869497;29;19951;-96
2023/12/21 03:25:31;;;;;;;;;;;;;;;11.09;100.00;100231.09;4892304;29;19924;-96
2023/12/21 03:28:05;;;;;;;;;;;;;;;11.08;100.00;100232.94;4872712;29;19991;-96
2023/12/21 03:30:36;;;;;;;;;;;;;;;11.05;100.00;100233.22;4879281;29;19928;-96
2023/12/21 03:33:05;;;;;;;;;;;;;;;11.07;100.00;100254.25;4867404;29;20441;-96
2023/12/21 03:35:52;;;;;;;;;;;;;;;11.07;100.00;100247.13;4870191;29;19946;-96
2023/12/21 03:38:18;;;;;;;;;;;;;;;11.06;100.00;100248.09;4866289;29;19940;-95
2023/12/21 03:40:52;;;;;;;;;;;;;;;11.08;100.00;100237.38;4866175;29;19924;-95
2023/12/21 03:43:20;;;;;;;;;;;;;;;11.09;100.00;100241.66;4896875;29;19955;-95
2023/12/21 03:45:49;;;;;;;;;;;;;;;11.14;100.00;100227.03;4880692;29;19920;-95
2023/12/21 03:48:33;;;;;;;;;;;;;;;11.12;100.00;100212.28;4865369;29;20362;-96
2023/12/21 03:51:12;;;;;;;;;;;;;;;11.09;100.00;100221.34;4893130;29;20494;-96
2023/12/21 03:53:41;;;;;;;;;;;;;;;11.07;100.00;100188.94;4884079;29;20511;-95
2023/12/21 03:56:10;;;;;;;;;;;;;;;11.11;100.00;100198.22;4880184;29;20015;-96
2023/12/21 03:58:38;;;;;;;;;;;;;;;11.13;100.00;100184.84;4914268;29;19920;-96
2023/12/21 04:01:07;;;;;;;;;;;;;;;11.10;100.00;100195.75;4898124;29;19919;-96
2023/12/21 04:03:53;;;;;;;;;;;;;;;11.09;100.00;100172.91;4894358;29;19920;-96
2023/12/21 04:06:22;;;;;;;;;;;;;;;11.07;100.00;100180.19;4878633;29;19924;-96
2023/12/21 04:08:59;;;;;;;;;;;;;;;11.05;100.00;100167.09;4881874;29;19920;-95
2023/12/21 04:11:48;;;;;;;;;;;;;;;11.06;100.00;100138.81;4900828;29;19924;-96
2023/12/21 04:14:17;;;;;;;;;;;;;;;11.03;100.00;100146.09;4885277;29;19920;-96
2023/12/21 04:16:43;;;;;;;;;;;;;;;11.06;100.00;100136.19;4894414;29;20539;-95
2023/12/21 04:19:09;;;;;;;;;;;;;;;11.05;100.00;100143.31;4871114;29;19924;-96
2023/12/21 04:21:35;;;;;;;;;;;;;;;11.04;100.00;100145.13;4862640;29;19920;-96
2023/12/21 04:24:01;;;;;;;;;;;;;;;11.06;100.00;100142.31;4861256;29;20674;-94
2023/12/21 04:26:27;;;;;;;;;;;;;;;11.07;100.00;100135.22;4863957;29;19920;-96
2023/12/21 04:28:52;;;;;;;;;;;;;;;11.06;100.00;100130.88;4845761;29;19931;-96
2023/12/21 04:31:19;;;;;;;;;;;;;;;11.06;100.00;100107.94;4873614;29;19991;-96
2023/12/21 04:33:46;;;;;;;;;;;;;;;11.05;100.00;100090.41;4866516;29;19942;-96
2023/12/21 04:36:12;;;;;;;;;;;;;;;11.08;100.00;100100.69;4880132;29;19920;-96
2023/12/21 04:38:38;;;;;;;;;;;;;;;11.06;100.00;100104.44;4884688;29;19923;-95
2023/12/21 04:41:04;;;;;;;;;;;;;;;11.03;100.00;100098.50;4850515;29;19931;-96
2023/12/21 04:43:30;;;;;;;;;;;;;;;11.01;100.00;100111.03;4883929;29;19919;-96
2023/12/21 04:45:56;;;;;;;;;;;;;;;11.10;100.00;100103.97;4880582;29;20365;-95
2023/12/21 04:48:22;;;;;;;;;;;;;;;11.11;100.00;100112.75;4886800;29;19924;-96
2023/12/21 04:50:48;;;;;;;;;;;;;;;11.09;100.00;100104.97;4882811;29;19984;-96
2023/12/21 04:53:13;;;;;;;;;;;;;;;11.13;100.00;100068.47;4886027;29;19920;-96
2023/12/21 04:55:39;;;;;;;;;;;;;;;11.11;100.00;100081.84;4886815;29;20408;-96
2023/12/21 04:58:05;;;;;;;;;;;;;;;11.09;100.00;100082.97;4886263;29;19920;-96
2023/12/21 05:00:31;;;;;;;;;;;;;;;11.11;100.00;100110.09;4904718;29;19919;-95
2023/12/21 05:02:57;;;;;;;;;;;;;;;11.10;100.00;100076.72;4869521;29;20392;-95
2023/12/21 05:05:24;;;;;;;;;;;;;;;11.03;100.00;100097.66;4868689;29;19971;-96
2023/12/21 05:07:50;;;;;;;;;;;;;;;11.08;100.00;100111.25;4902059;29;19920;-95
2023/12/21 05:10:16;;;;;;;;;;;;;;;11.11;100.00;100103.00;4888801;29;19959;-96
2023/12/21 05:12:42;;;;;;;;;;;;;;;11.07;100.00;100096.34;4891904;29;19923;-96
2023/12/21 05:15:08;;;;;;;;;;;;;;;11.06;100.00;100078.00;4903036;29;19924;-96
2023/12/21 05:17:34;;;;;;;;;;;;;;;11.04;100.00;100112.53;4906869;29;20010;-95
2023/12/21 05:20:01;;;;;;;;;;;;;;;11.06;100.00;100117.66;4865940;29;19923;-95
2023/12/21 05:22:26;;;;;;;;;;;;;;;11.02;100.00;100123.28;4902614;29;20018;-96
2023/12/21 05:24:55;;;;;;;;;;;;;;;10.95;100.00;100116.13;4887864;29;20373;-95
2023/12/21 05:27:24;;;;;;;;;;;;;;;10.94;100.00;100123.22;4897821;29;19920;-95
2023/12/21 05:29:50;;;;;;;;;;;;;;;10.91;100.00;100115.59;4881485;29;20381;-96
2023/12/21 05:32:15;;;;;;;;;;;;;;;10.89;100.00;100114.94;4865008;29;19927;-95
2023/12/21 05:34:41;;;;;;;;;;;;;;;10.87;100.00;100106.31;4888013;29;19959;-94
2023/12/21 05:37:10;;;;;;;;;;;;;;;10.86;100.00;100126.63;4900226;29;20372;-94
2023/12/21 05:39:37;;;;;;;;;;;;;;;10.86;100.00;100117.88;4884022;29;20121;-94
2023/12/21 05:42:06;;;;;;;;;;;;;;;10.85;100.00;100122.34;4869486;29;20061;-94
2023/12/21 05:44:31;;;;;;;;;;;;;;;10.84;100.00;100128.63;4902098;29;19920;-95
2023/12/21 05:46:57;;;;;;;;;;;;;;;10.82;100.00;100127.94;4867150;29;20042;-95
2023/12/21 05:49:23;;;;;;;;;;;;;;;10.83;100.00;100112.91;4885053;29;20003;-96
2023/12/21 05:51:55;;;;;;;;;;;;;;;10.82;100.00;100117.34;4870724;29;19928;-96
2023/12/21 05:54:21;;;;;;;;;;;;;;;10.89;100.00;100112.28;4883888;29;19920;-95
2023/12/21 05:56:47;;;;;;;;;;;;;;;10.86;100.00;100108.13;4884338;29;20464;-96
2023/12/21 05:59:12;;;;;;;;;;;;;;;10.89;100.00;100107.81;4889403;29;19920;-96
2023/12/21 06:01:42;;;;;;;;;;;;;;;10.86;100.00;100116.06;4869548;29;19952;-96
2023/12/21 06:04:08;;;;;;;;;;;;;;;10.87;100.00;100114.25;4867541;29;19924;-95
2023/12/21 06:06:34;;;;;;;;;;;;;;;10.92;100.00;100135.78;4866129;29;19927;-96
2023/12/21 06:09:00;;;;;;;;;;;;;;;10.94;100.00;100128.50;4882754;29;20413;-95
2023/12/21 06:11:28;;;;;;;;;;;;;;;10.91;100.00;100127.00;4862597;29;19920;-96
2023/12/21 06:13:54;;;;;;;;;;;;;;;10.89;100.00;100125.50;4854042;29;20396;-96
2023/12/21 06:16:19;;;;;;;;;;;;;;;10.84;100.00;100146.28;4868483;29;19920;-95
2023/12/21 06:18:45;;;;;;;;;;;;;;;10.88;100.00;100158.19;4864902;29;20370;-96
2023/12/21 06:21:11;;;;;;;;;;;;;;;10.90;100.00;100150.94;4870097;29;20357;-95
2023/12/21 06:23:37;;;;;;;;;;;;;;;10.94;100.00;100154.94;4867586;29;19947;-96
2023/12/21 06:26:02;;;;;;;;;;;;;;;10.96;100.00;100136.31;4848433;29;19920;-96
2023/12/21 06:28:30;;;;;;;;;;;;;;;10.97;100.00;100130.88;4855568;29;20285;-96
2023/12/21 06:30:56;;;;;;;;;;;;;;;10.92;100.00;100133.94;4859641;29;19923;-96
2023/12/21 06:33:26;;;;;;;;;;;;;;;10.92;100.00;100149.81;4857043;29;19923;-96
2023/12/21 06:35:52;;;;;;;;;;;;;;;10.91;100.00;100148.16;4868216;29;19922;-95
2023/12/21 06:38:18;;;;;;;;;;;;;;;10.92;100.00;100157.75;4868073;29;19930;-96
2023/12/21 06:40:44;;;;;;;;;;;;;;;10.88;100.00;100172.25;4855569;29;19930;-96
2023/12/21 06:43:10;;;;;;;;;;;;;;;10.94;100.00;100178.75;4867588;29;19927;-96
2023/12/21 06:45:37;;;;;;;;;;;;;;;10.95;100.00;100169.00;4888137;29;19923;-96
2023/12/21 06:48:05;;;;;;;;;;;;;;;10.93;100.00;100185.03;4879891;29;19927;-96
2023/12/21 06:50:31;;;;;;;;;;;;;;;10.91;100.00;100185.19;4877782;29;19931;-95
2023/12/21 06:52:57;;;;;;;;;;;;;;;10.89;100.00;100186.31;4866265;29;19924;-96
2023/12/21 06:55:25;;;;;;;;;;;;;;;10.92;100.00;100186.00;4868871;29;19920;-95
2023/12/21 06:57:54;;;;;;;;;;;;;;;10.90;100.00;100180.88;4869027;29;20389;-96
2023/12/21 07:00:19;;;;;;;;;;;;;;;10.94;100.00;100177.94;4861964;29;19920;-96
2023/12/21 07:02:46;;;;;;;;;;;;;;;10.98;100.00;100198.63;4864243;29;19936;-96
2023/12/21 07:05:12;;;;;;;;;;;;;;;10.99;100.00;100202.91;4866617;29;19979;-96
2023/12/21 07:07:38;;;;;;;;;;;;;;;10.98;100.00;100200.44;4867706;29;19987;-95
2023/12/21 07:10:04;;;;;;;;;;;;;;;11.02;100.00;100178.81;4871153;29;20349;-96
2023/12/21 07:12:32;;;;;;;;;;;;;;;11.01;100.00;100187.75;4856095;29;19924;-96
2023/12/21 07:14:58;;;;;;;;;;;;;;;11.00;100.00;100203.75;4869463;29;20399;-96
2023/12/21 07:17:24;;;;;;;;;;;;;;;10.97;100.00;100175.81;4869312;29;19926;-96
2023/12/21 07:19:50;;;;;;;;;;;;;;;10.96;100.00;100186.56;4881991;29;19920;-96
2023/12/21 07:22:16;;;;;;;;;;;;;;;10.97;100.00;100202.25;4864729;29;19920;-95
2023/12/21 07:24:42;;;;;;;;;;;;;;;11.02;100.00;100181.47;4893332;29;19930;-96
2023/12/21 07:27:08;;;;;;;;;;;;;;;11.03;100.00;100208.75;4865690;29;19924;-96
2023/12/21 07:29:35;;;;;;;;;;;;;;;11.02;100.00;100210.53;4860415;29;19931;-94
2023/12/21 07:32:06;;;;;;;;;;;;;;;11.02;100.00;100205.25;4852033;29;20308;-96
2023/12/21 07:34:32;;;;;;;;;;;;;;;11.05;100.00;100204.13;4866547;29;19924;-96
2023/12/21 07:37:01;;;;;;;;;;;;;;;11.06;100.00;100208.44;4893170;29;19928;-96
2023/12/21 07:39:27;;;;;;;;;;;;;;;11.04;100.00;100221.81;4867513;29;19919;-96
2023/12/21 07:42:01;;;;;;;;;;;;;;;11.06;100.00;100207.59;4881803;29;19920;-95
2023/12/21 07:44:27;;;;;;;;;;;;;;;11.09;100.00;100208.13;4866777;29;19928;-96
2023/12/21 07:46:53;;;;;;;;;;;;;;;11.11;100.00;100198.22;4858420;29;19972;-96
2023/12/21 07:49:22;;;;;;;;;;;;;;;11.14;100.00;100215.59;4858365;29;20004;-95
2023/12/21 07:51:49;;;;;;;;;;;;;;;11.14;100.00;100223.53;4859994;29;19939;-96
2023/12/21 07:54:14;;;;;;;;;;;;;;;11.13;100.00;100216.59;4851546;29;19920;-96
2023/12/21 07:56:42;;;;;;;;;;;;;;;11.14;100.00;100197.94;4864720;29;20007;-96
2023/12/21 07:59:09;;;;;;;;;;;;;;;11.20;100.00;100195.63;4870746;29;19939;-96
2023/12/21 08:01:36;;;;;;;;;;;;;;;11.18;100.00;100195.78;4865208;29;19945;-96
2023/12/21 08:04:04;;;;;;;;;;;;;;;11.19;100.00;100209.84;4876047;29;19930;-96
2023/12/21 08:06:30;;;;;;;;;;;;;;;11.19;100.00;100215.97;4870493;29;19988;-96
2023/12/21 08:08:57;;;;;;;;;;;;;;;11.19;100.00;100208.03;4848483;29;19924;-96
2023/12/21 08:11:23;;;;;;;;;;;;;;;11.15;100.00;100206.66;4867419;29;19935;-96
2023/12/21 08:13:51;;;;;;;;;;;;;;;11.18;100.00;100227.53;4866152;29;19983;-96
2023/12/21 08:16:17;;;;;;;;;;;;;;;11.16;100.00;100219.75;4859852;29;19924;-95
2023/12/21 08:18:45;;;;;;;;;;;;;;;11.19;100.00;100218.63;4856146;29;19934;-95
2023/12/21 08:21:14;;;;;;;;;;;;;;;11.17;100.00;100223.22;4887445;29;20010;-96
2023/12/21 08:23:40;;;;;;;;;;;;;;;11.24;100.00;100231.38;4874386;29;19945;-96
2023/12/21 08:26:06;;;;;;;;;;;;;;;11.23;100.00;100219.97;4889797;29;19972;-96
2023/12/21 08:28:33;;;;;;;;;;;;;;;11.24;100.00;100228.75;4861747;29;19928;-96
2023/12/21 08:31:01;;;;;;;;;;;;;;;11.22;100.00;100209.53;4875279;29;19987;-96
2023/12/21 08:33:27;;;;;;;;;;;;;;;11.18;100.00;100222.22;4854445;29;20413;-96
2023/12/21 08:35:53;;;;;;;;;;;;;;;11.16;100.00;100214.44;4874618;29;19920;-96
2023/12/21 08:38:20;;;;;;;;;;;;;;;11.19;100.00;100244.22;4861951;29;20002;-96
2023/12/21 08:40:48;;;;;;;;;;;;;;;11.19;100.00;100231.84;4869444;29;19923;-96
2023/12/21 08:43:15;;;;;;;;;;;;;;;11.22;100.00;100231.53;4883863;29;19919;-96
2023/12/21 08:45:41;;;;;;;;;;;;;;;11.23;100.00;100240.28;4874975;29;19976;-96
2023/12/21 08:48:07;;;;;;;;;;;;;;;11.24;100.00;100260.50;4856911;29;20023;-95
2023/12/21 08:50:32;;;;;;;;;;;;;;;11.19;100.00;100260.94;4870198;29;20035;-96
2023/12/21 08:53:02;;;;;;;;;;;;;;;11.13;100.00;100259.72;4870533;29;19932;-96
2023/12/21 08:55:29;;;;;;;;;;;;;;;11.07;100.00;100248.94;4868188;29;19934;-94
2023/12/21 08:57:58;;;;;;;;;;;;;;;11.09;100.00;100260.19;4857167;29;19920;-96
2023/12/21 09:00:24;;;;;;;;;;;;;;;11.06;100.00;100218.19;4855601;29;20041;-95
2023/12/21 09:02:51;;;;;;;;;;;;;;;11.07;100.00;100243.66;4868165;29;20007;-96
2023/12/21 09:41:39;;;;;;;11.98;2.13;;;;;;;10.92;100.00;100250.28;5179670;27;20652;-93
2023/12/21 09:44:05;;;;;;;10.63;2.08;;;;;;;10.94;100.00;100244.84;5104923;27;20046;-94
2023/12/21 09:46:39;;;;;;;16.58;3.30;;;;;;;11.00;100.00;100262.78;5092807;22;20041;-94
2023/12/21 09:49:09;;;;;;;16.13;3.80;;;;;;;11.03;100.00;100266.94;5075730;28;20040;-93
2023/12/21 09:51:37;;;;;;;17.00;3.47;;;;;;;11.04;100.00;100273.88;5070428;28;20043;-92
2023/12/21 09:54:04;;;;;;;13.40;2.97;;;;;;;11.12;100.00;100284.53;5031350;28;20052;-91
2023/12/21 09:56:32;;;;;;;9.13;2.00;;;;;;;11.16;100.00;100290.34;5069231;28;20101;-92
2023/12/21 09:59:00;;;;;;;9.43;1.30;;;;;;;11.15;100.00;100297.44;5042965;28;20117;-92
2023/12/21 10:01:26;;;;;;;7.43;1.75;;;;;;;11.07;100.00;100278.03;5065573;28;20040;-94
2023/12/21 10:03:53;;;;;;;9.45;2.05;;;;;;;10.97;100.00;100289.53;5062764;28;20097;-95
2023/12/21 10:06:19;;;;;;;12.38;2.05;;;;;;;10.99;100.00;100295.47;5054383;28;20036;-89
2023/12/21 10:08:45;;;;;;;13.05;2.00;;;;;;;10.97;100.00;100300.13;5048724;28;20115;-91
2023/12/21 10:11:11;;;;;;;16.88;2.92;;;;;;;11.04;100.00;100290.56;5046750;28;20153;-92
2023/12/21 10:13:37;;;;;;;10.73;1.92;;;;;;;11.02;100.00;100297.00;5066305;28;20394;-91
2023/12/21 10:16:03;;;;;;;8.77;2.17;;;;;;;11.07;100.00;100301.84;5062754;28;20045;-91
2023/12/21 10:18:30;;;;;;;15.57;2.88;;;;;;;11.07;100.00;100284.16;5050693;28;20020;-91
2023/12/21 10:20:56;;;;;;;11.32;2.30;;;;;;;11.18;100.00;100296.31;5068099;28;20063;-90
2023/12/21 10:23:25;;;;;;;14.98;2.85;;;;;;;11.26;100.00;100308.81;5048059;28;20032;-90
2023/12/21 10:25:53;;;;;;;9.40;2.47;;;;;;;11.23;100.00;100285.25;5081066;28;20032;-94
2023/12/21 10:28:24;;;;;;;13.60;2.53;;;;;;;11.27;100.00;100292.78;5052198;28;20044;-95
2023/12/21 10:30:54;;;;;;;11.30;2.17;;;;;;;11.34;100.00;100319.44;5059606;28;20028;-91
2023/12/21 10:33:20;;;;;;;15.75;2.63;;;;;;;11.33;100.00;100338.09;5065522;28;20032;-91
2023/12/21 10:35:47;;;;;;;15.32;3.33;;;;;;;11.29;100.00;100330.47;5059592;28;20033;-95
2023/12/21 10:38:14;;;;;;;12.20;1.98;;;;;;;11.25;100.00;100345.00;5075680;28;20044;-95
2023/12/21 10:40:44;;;;;;;9.95;2.33;;;;;;;11.33;100.00;100332.81;5070639;28;20037;-92
2023/12/21 10:43:10;;;;;;;13.15;2.60;;;;;;;11.36;100.00;100337.81;5053776;28;20038;-91
2023/12/21 10:45:48;;;;;;;10.93;2.13;;;;;;;11.40;100.00;100326.75;5034916;28;20402;-91
2023/12/21 10:48:18;;;;;;;11.75;2.95;;;;;;;11.49;100.00;100342.72;5037466;28;20071;-91
2023/12/21 10:50:47;;;;;;;15.57;3.15;;;;;;;11.50;100.00;100321.38;5053289;28;20028;-91
2023/12/21 10:53:14;;;;;;;8.38;1.92;;;;;;;11.52;100.00;100334.47;5054093;28;20051;-90
2023/12/21 10:55:43;;;;;;;14.52;2.60;;;;;;;11.51;100.00;100349.53;5037412;28;20090;-94
2023/12/21 10:58:11;;;;;;;14.90;2.53;;;;;;;11.51;100.00;100335.47;5062926;28;20037;-95
2023/12/21 11:00:53;;;;;;;11.23;2.25;;;;;;;11.52;100.00;100340.59;5052851;28;20048;-95
2023/12/21 11:03:20;;;;;;;18.55;2.88;;;;;;;11.45;100.00;100344.81;5065780;28;20032;-96
2023/12/21 11:05:48;;;;;;;16.52;3.42;;;;;;;11.42;100.00;100337.19;5064329;28;20039;-90
2023/12/21 11:08:14;;;;;;;12.15;2.60;;;;;;;11.42;100.00;100339.84;5041051;28;20032;-91
2023/12/21 11:10:41;;;;;;;14.25;2.97;;;;;;;11.36;100.00;100330.69;5038366;28;20050;-96
2023/12/21 11:13:07;;;;;;;14.77;2.55;;;;;;;11.31;100.00;100338.25;5066124;28;20125;-96
2023/12/21 11:15:36;;;;;;;10.90;2.28;;;;;;;11.25;100.00;100345.00;5051172;28;20036;-95
2023/12/21 11:18:17;;;;;;;6.47;1.58;;;;;;;11.17;100.00;100339.63;5071757;28;20059;-96
2023/12/21 11:21:00;;;;;;;11.20;1.77;;;;;;;11.09;100.00;100343.03;5060264;28;20024;-96
2023/12/21 11:23:26;;;;;;;9.35;1.50;;;;;;;10.96;100.00;100332.81;5051299;28;20060;-95
2023/12/21 11:25:56;;;;;;;9.60;1.52;;;;;;;10.95;100.00;100340.88;5042992;28;20149;-91
2023/12/21 11:28:32;;;;;;;6.40;1.40;;;;;;;10.86;100.00;100351.38;5040947;28;20060;-90
2023/12/21 11:30:58;;;;;;;13.73;1.95;;;;;;;10.75;100.00;100355.06;5040263;28;20029;-96
2023/12/21 11:33:30;;;;;;;13.70;2.38;;;;;;;10.78;100.00;100338.91;5052499;28;20123;-95
2023/12/21 11:35:57;;;;;;;11.65;2.13;;;;;;;10.67;100.00;100341.78;5046281;28;20064;-96
2023/12/21 11:38:46;;;;;;;14.23;3.08;;;;;;;10.71;100.00;100331.72;5061213;28;20524;-95
2023/12/21 11:41:16;;;;;;;18.30;2.08;;;;;;;10.65;100.00;100331.31;5059473;28;20032;-92
2023/12/21 11:44:15;;;;;;;19.95;3.50;;;;;;;10.70;100.00;100330.91;5063420;28;20037;-94
2023/12/21 11:46:41;;;;;;;16.33;2.55;;;;;;;10.59;100.00;100336.38;5002115;28;20044;-93
2023/12/21 11:49:22;;;;;;;17.55;3.13;;;;;;;10.63;100.00;100325.38;5058198;28;20037;-94
2023/12/21 11:51:52;;;;;;;16.48;3.03;;;;;;;10.66;100.00;100324.22;5049559;28;20041;-90
2023/12/21 11:54:22;;;;;;;19.63;3.42;;;;;;;10.78;100.00;100322.22;5047052;28;20043;-90
2023/12/21 11:57:08;;;;;;;11.82;2.28;;;;;;;10.88;100.00;100316.84;5068886;28;20071;-90
2023/12/21 11:59:36;;;;;;;18.48;3.00;;;;;;;10.93;100.00;100317.25;5045588;28;20111;-92
2023/12/21 12:02:10;;;;;;;14.85;2.65;;;;;;;11.05;100.00;100328.44;5039281;28;20044;-93
2023/12/21 12:04:36;;;;;;;14.90;2.50;;;;;;;11.07;100.00;100334.41;5051993;28;20048;-91
2023/12/21 12:07:04;;;;;;;11.93;2.50;;;;;;;11.21;100.00;100322.44;5035815;28;20062;-90
2023/12/21 12:09:30;;;;;;;13.40;2.50;;;;;;;11.25;100.00;100312.41;5071980;28;20498;-93
2023/12/21 12:11:56;;;;;;;16.00;3.47;;;;;;;11.24;100.00;100305.47;5070512;28;20101;-95
2023/12/21 12:14:22;;;;;;;15.85;3.08;;;;;;;11.22;100.00;100313.56;5096033;28;20123;-95
2023/12/21 12:16:49;;;;;;;16.95;3.22;;;;;;;11.23;100.00;100327.59;5038345;28;20119;-92
2023/12/21 12:19:17;;;;;;;12.45;2.35;;;;;;;11.14;100.00;100330.19;5034679;28;20029;-91
2023/12/21 12:21:43;;;;;;;9.68;2.20;;;;;;;11.08;100.00;100335.25;5034561;28;20040;-91
2023/12/21 12:24:09;;;;;;;13.38;2.15;;;;;;;10.99;100.00;100331.69;5064863;28;20938;-91
2023/12/21 12:26:35;;;;;;;5.57;1.85;;;;;;;10.79;100.00;100326.53;5044250;28;20066;-94
2023/12/21 12:29:04;;;;;;;12.18;2.35;;;;;;;10.77;100.00;100333.75;5043362;28;20032;-95
2023/12/21 12:31:31;;;;;;;13.48;2.30;;;;;;;10.72;100.00;100320.19;5058115;28;20041;-92
2023/12/21 12:33:57;;;;;;;16.50;2.60;;;;;;;10.69;100.00;100318.63;5052672;28;20107;-92
2023/12/21 12:36:23;;;;;;;12.60;2.63;;;;;;;10.66;100.00;100325.06;5057857;28;20132;-95
2023/12/21 12:38:54;;;;;;;17.42;2.45;;;;;;;10.67;100.00;100316.16;5077733;28;20025;-94
2023/12/21 12:41:22;;;;;;;9.65;2.45;;;;;;;10.78;100.00;100309.00;5073815;28;20040;-92
2023/12/21 12:43:49;;;;;;;16.15;2.78;;;;;;;10.81;100.00;100297.28;5032247;28;20044;-92
2023/12/21 12:46:16;;;;;;;15.60;2.80;;;;;;;10.77;100.00;100316.09;5047432;28;20070;-92
2023/12/21 12:48:43;;;;;;;16.23;2.47;;;;;;;10.73;100.00;100304.16;5034590;28;20040;-92
2023/12/21 12:51:12;;;;;;;18.52;3.05;;;;;;;10.83;100.00;100306.72;5031425;28;20028;-92
2023/12/21 12:53:45;;;;;;;21.52;2.78;;;;;;;10.96;100.00;100282.56;5027443;28;20036;-92
2023/12/21 12:56:11;;;;;;;17.00;2.97;;;;;;;10.90;100.00;100280.53;5049155;28;20127;-92
2023/12/21 12:58:43;;;;;;;18.38;2.55;;;;;;;10.97;100.00;100284.25;5034988;28;20059;-91
2023/12/21 13:01:09;;;;;;;18.27;3.88;;;;;;;10.96;100.00;100295.78;5034640;28;20481;-92
2023/12/21 13:03:35;;;;;;;21.75;3.95;;;;;;;10.93;100.00;100282.88;5033060;28;20132;-92
2023/12/21 13:06:02;;;;;;;17.35;4.68;;;;;;;10.97;100.00;100301.91;5051777;28;20370;-93
2023/12/21 13:08:28;;;;;;;20.98;3.90;;;;;;;11.01;100.00;100296.16;5062467;28;20045;-90
2023/12/21 13:10:54;;;;;;;21.02;3.80;;;;;;;11.03;100.00;100296.03;5042750;28;20020;-94
2023/12/21 13:13:21;;;;;;;23.58;4.03;;;;;;;11.02;100.00;100303.13;5044946;28;20120;-95
2023/12/21 13:15:47;;;;;;;30.23;5.53;;;;;;;11.02;100.00;100304.94;5039047;28;20115;-93
2023/12/21 13:18:13;;;;;;;18.35;3.88;;;;;;;10.97;100.00;100304.56;5049723;28;20047;-91
2023/12/21 13:20:39;;;;;;;22.10;3.88;;;;;;;10.87;100.00;100300.19;5033608;28;20028;-94
2023/12/21 13:23:05;;;;;;;17.88;3.70;;;;;;;10.82;100.00;100297.13;5058709;28;20535;-94
2023/12/21 13:25:31;;;;;;;22.13;3.92;;;;;;;10.83;100.00;100311.19;5038668;28;20144;-92
2023/12/21 13:27:57;;;;;;;18.00;3.50;;;;;;;10.84;100.00;100311.06;5035506;28;20111;-93
2023/12/21 13:30:26;;;;;;;18.92;3.70;;;;;;;10.84;100.00;100305.75;5033519;28;20502;-92